»·PEaware :: SKW2337 KSBA-KPSP

SKW2337 :: KSBA-KPSP

FLIGHT INFORMATION

Flight Status: Arrived
Operator:
SkyWest Airlines
More flights by this operator :: More flights under this callsign
Pilot: Isaac R. (8401)
Aircraft: CANADAIR CL-600 CRJ-700
(CRJ7)
More flights by this aircraft type
Origin: KSBA Santa Barbara Mun
United States
Destination: KPSP Palm Springs Intl
United States
More flights between these airports :: More routes between these airports
Route: +KWANG5 HENNER PMD V137 PSP
File this flight plan on PilotEdge
Remarks:
Altitude:
(Current/Filed)
17,000ft
Speed:
(Current/Filed)
185kts
Departed: 07-May-19 05:34 PM
Arrived: 07-May-19 06:10 PM
Distance/Time
Traveled:
169nm/0:36
Distance/Time
To Go:
Arrived

Flight Plot

Page will automatically refresh every two minutes.

Flight plan parsing failed; only flown route is shown


Map Options




Map Legend


Flown Route
Filed Route
Departure Airport
Arrival Airport
Navaid (VOR, NDB)
Fix

Horizontal Profiles

Position Reports

Time Latitude Longitude Heading Altitude Ground
Speed
07-May-19 17:06 34.424260 -119.836972 104 17ft 0kts
07-May-19 17:07 34.424260 -119.836972 104 17ft 0kts
07-May-19 17:08 34.424260 -119.836972 104 17ft 0kts
07-May-19 17:09 34.424260 -119.836972 104 17ft 0kts
07-May-19 17:10 34.424260 -119.836972 104 17ft 0kts
07-May-19 17:11 34.424260 -119.836972 104 17ft 0kts
07-May-19 17:12 34.424260 -119.836972 104 17ft 0kts
07-May-19 17:13 34.424260 -119.836972 104 17ft 0kts
07-May-19 17:14 34.424260 -119.836972 104 17ft 0kts
07-May-19 17:15 34.424260 -119.836972 104 17ft 0kts
07-May-19 17:16 34.424260 -119.836972 104 17ft 0kts
07-May-19 17:17 34.424260 -119.836972 104 17ft 0kts
07-May-19 17:18 34.424260 -119.836972 104 17ft 0kts
07-May-19 17:19 34.424260 -119.836972 104 17ft 0kts
07-May-19 17:20 34.424260 -119.836972 104 17ft 0kts
07-May-19 17:21 34.424260 -119.836972 104 17ft 0kts
07-May-19 17:22 34.424260 -119.836972 104 17ft 0kts
07-May-19 17:23 34.424260 -119.836972 104 17ft 0kts
07-May-19 17:24 34.424260 -119.836972 104 17ft 0kts
07-May-19 17:25 34.424260 -119.836972 104 17ft 0kts
07-May-19 17:26 34.424260 -119.836972 104 17ft 0kts
07-May-19 17:27 34.424260 -119.836972 104 17ft 0kts
07-May-19 17:28 34.424260 -119.836972 104 17ft 0kts
07-May-19 17:29 34.424260 -119.836972 104 17ft 0kts
07-May-19 17:30 34.424260 -119.836972 104 17ft 0kts
07-May-19 17:31 34.424260 -119.836972 104 17ft 0kts
07-May-19 17:32 34.424260 -119.836972 104 17ft 0kts
07-May-19 17:33 34.387349 -119.857495 104 3033ft 272kts
07-May-19 17:34 34.404844 -119.772359 47 2967ft 247kts
07-May-19 17:35 34.392489 -119.703075 123 5389ft 250kts
07-May-19 17:36 34.362040 -119.624214 120 7877ft 257kts
07-May-19 17:37 34.320725 -119.547274 106 7920ft 287kts
07-May-19 17:38 34.325728 -119.449229 84 9860ft 300kts
07-May-19 17:39 34.327935 -119.346536 85 12666ft 310kts
07-May-19 17:40 34.331148 -119.239410 82 14538ft 344kts
07-May-19 17:41 34.359537 -119.119206 66 16161ft 391kts
07-May-19 17:42 34.393514 -118.990046 69 18736ft 410kts
07-May-19 17:43 34.428550 -118.855954 68 21229ft 426kts
07-May-19 17:44 34.464751 -118.716723 68 23463ft 441kts
07-May-19 17:45 34.501907 -118.572610 68 25479ft 456kts
07-May-19 17:46 34.540474 -118.422515 68 26981ft 478kts
07-May-19 17:47 34.577871 -118.275291 68 27074ft 448kts
07-May-19 17:48 34.615096 -118.126554 70 27049ft 473kts
07-May-19 17:49 34.597647 -117.972889 122 27048ft 482kts
07-May-19 17:50 34.525519 -117.836851 114 27059ft 480kts
07-May-19 17:51 34.462579 -117.693274 119 27078ft 482kts
07-May-19 17:52 34.396773 -117.551940 117 27073ft 483kts
07-May-19 17:53 34.330948 -117.410131 117 26869ft 488kts
07-May-19 17:54 34.265819 -117.269824 117 24739ft 453kts
07-May-19 17:55 34.206106 -117.141739 117 21947ft 425kts
07-May-19 17:56 34.148967 -117.019406 118 19153ft 423kts
07-May-19 17:57 34.089659 -116.893360 118 16356ft 426kts
07-May-19 17:58 34.035392 -116.778587 118 14017ft 361kts
07-May-19 17:59 33.990442 -116.683379 119 11615ft 310kts
07-May-19 18:00 33.950169 -116.597907 119 10035ft 280kts
07-May-19 18:01 33.912529 -116.518905 121 8361ft 265kts
07-May-19 18:02 33.876095 -116.442865 122 6665ft 258kts
07-May-19 18:03 33.843398 -116.368664 121 5998ft 240kts
07-May-19 18:04 33.800944 -116.317915 178 5426ft 198kts
07-May-19 18:05 33.775314 -116.358545 254 4496ft 162kts
07-May-19 18:06 33.768877 -116.414583 270 2915ft 174kts
07-May-19 18:07 33.783894 -116.463988 304 1814ft 131kts
07-May-19 18:08 33.810125 -116.490111 321 825ft 114kts
07-May-19 18:09 33.830525 -116.508427 323 484ft 26kts
07-May-19 18:10 33.832610 -116.512092 184 484ft 12kts
07-May-19 18:11 33.828575 -116.508752 139 484ft 24kts
07-May-19 18:12 33.823535 -116.504316 163 484ft 11kts
07-May-19 18:13 33.821799 -116.506082 206 484ft 8kts
07-May-19 18:14 33.820602 -116.506524 312 484ft 1kts
07-May-19 18:15 33.821036 -116.507054 314 484ft 0kts
07-May-19 18:16 33.821036 -116.507054 314 484ft 0kts
07-May-19 18:17 33.821036 -116.507054 314 484ft 0kts
07-May-19 18:18 33.821036 -116.507054 314 484ft 0kts
07-May-19 18:19 33.821036 -116.507054 314 484ft 0kts
07-May-19 18:20 33.821036 -116.507054 314 484ft 0kts
07-May-19 18:21 33.821036 -116.507054 314 484ft 0kts
07-May-19 18:22 33.821036 -116.507054 314 484ft 0kts

Navigation Log

Ident Type
Flight plan parsing failed, navigation log unavailable